Time;durP1;ratioP1;P1;durP2;ratioP2;P2;SDS_P1;SDS_P2;PMS_P1;PMS_P2;Temp;Humidity;BMP_temperature;BMP_pressure;BME280_temperature;BME280_humidity;BME280_pressure;Samples;Min_cycle;Max_cycle;Signal;HPM_P1;HPM_P2
2022/07/18 00:02:15;;;;;;;5.85;3.17;;;16.10;99.90;;;-141.84;54.05;20342.28;5032376;28;20499;-61
2022/07/18 00:04:44;;;;;;;5.28;3.08;;;16.00;99.90;;;-141.84;54.34;20340.25;5032827;28;20606;-62
2022/07/18 00:07:14;;;;;;;4.53;3.13;;;16.00;99.90;;;-141.84;54.42;20344.31;5032624;28;20210;-62
2022/07/18 00:09:43;;;;;;;5.68;3.22;;;16.00;99.90;;;-141.84;54.78;20330.09;5033429;28;20236;-63
2022/07/18 00:12:13;;;;;;;4.10;3.10;;;15.90;99.90;;;-141.84;55.50;20299.59;5032563;28;20258;-61
2022/07/18 00:14:41;;;;;;;5.32;3.10;;;15.90;99.90;;;-141.84;55.40;20309.75;5032585;28;20235;-61
2022/07/18 00:17:10;;;;;;;4.82;3.17;;;15.80;99.90;;;-141.84;55.57;20285.38;5032656;28;20233;-61
2022/07/18 00:19:39;;;;;;;3.28;2.88;;;15.80;99.90;;;-141.84;55.45;20324.00;5032792;28;20230;-61
2022/07/18 00:22:08;;;;;;;6.25;3.10;;;15.90;99.90;;;-141.84;55.92;20289.44;5032270;28;20717;-62
2022/07/18 00:24:37;;;;;;;4.72;3.25;;;15.80;99.90;;;-141.84;56.13;20277.25;5032696;28;20249;-62
2022/07/18 00:27:07;;;;;;;6.78;3.42;;;15.70;99.90;;;-141.84;55.74;20307.72;5032293;28;20226;-62
2022/07/18 00:29:36;;;;;;;5.00;3.50;;;15.70;99.90;;;-141.84;55.65;20301.63;5032285;28;20229;-61
2022/07/18 00:37:15;;;;;;;3.70;3.38;;;15.70;99.90;;;-141.84;56.24;20273.19;5050002;28;20274;-61
2022/07/18 00:39:43;;;;;;;4.60;3.17;;;15.70;99.90;;;-141.84;56.46;20234.56;5052709;28;20289;-62
2022/07/18 00:42:11;;;;;;;4.40;3.50;;;15.60;99.90;;;-141.84;56.75;20240.66;5051918;28;20315;-62
2022/07/18 00:44:41;;;;;;;5.37;3.60;;;15.60;99.90;;;-141.84;56.91;20269.13;5051727;28;20240;-62
2022/07/18 00:47:09;;;;;;;5.95;3.75;;;15.60;99.90;;;-141.84;57.26;20279.28;5050769;28;20225;-62
2022/07/18 00:49:37;;;;;;;4.70;3.53;;;15.60;99.90;;;-141.84;57.34;20265.03;5051689;28;20308;-61
2022/07/18 00:52:06;;;;;;;4.47;3.10;;;15.50;99.90;;;-141.84;57.29;20232.53;5051801;28;20265;-61
2022/07/18 00:54:34;;;;;;;5.70;3.53;;;15.50;99.90;;;-141.84;57.33;20238.63;5052054;28;20281;-62
2022/07/18 00:57:03;;;;;;;5.22;3.30;;;15.50;99.90;;;-141.84;57.10;20273.19;5051613;28;20632;-62
2022/07/18 01:02:18;;;;;;;5.25;3.53;;;15.50;99.90;;;-141.84;56.94;20242.69;5051247;28;20253;-61
2022/07/18 01:04:47;;;;;;;4.70;3.60;;;15.50;99.90;;;-141.84;57.49;20244.72;5051432;28;20232;-62
2022/07/18 01:07:15;;;;;;;5.25;3.30;;;15.40;99.90;;;-141.84;57.26;20197.97;5051428;28;20678;-61
2022/07/18 01:09:44;;;;;;;4.57;3.38;;;15.40;99.90;;;-141.84;57.72;20200.00;5051826;28;20208;-62
2022/07/18 01:12:13;;;;;;;4.60;3.25;;;15.40;99.90;;;-141.84;57.47;20193.91;5051384;28;20232;-62
2022/07/18 01:14:41;;;;;;;4.33;3.00;;;15.30;99.90;;;-141.84;58.09;20232.53;5051107;28;20799;-61
2022/07/18 01:17:14;;;;;;;6.57;3.88;;;15.30;99.90;;;-141.84;57.67;20216.25;5051240;28;20409;-62
2022/07/18 01:19:44;;;;;;;6.80;3.30;;;15.40;99.90;;;-141.84;57.67;20246.75;5051239;28;20260;-62
2022/07/18 01:22:18;;;;;;;6.00;3.25;;;15.40;99.90;;;-141.84;57.81;20210.16;5051442;28;20241;-62
2022/07/18 01:24:48;;;;;;;5.78;3.25;;;15.30;99.90;;;-141.84;57.99;20208.13;5051321;28;20241;-61
2022/07/18 01:27:19;;;;;;;4.15;3.08;;;15.30;99.90;;;-141.84;58.23;20200.00;5051064;28;20317;-62
2022/07/18 01:29:49;;;;;;;6.38;3.72;;;15.20;99.90;;;-141.84;58.06;20202.03;5050938;28;20256;-62
2022/07/18 01:32:19;;;;;;;6.73;3.63;;;15.20;99.90;;;-141.84;58.04;20212.19;5050943;28;20225;-62
2022/07/18 01:34:49;;;;;;;7.67;3.70;;;15.20;99.90;;;-141.84;57.58;20212.19;5050920;28;20221;-62
2022/07/18 01:37:19;;;;;;;4.03;3.10;;;15.20;99.90;;;-141.84;57.50;20179.69;5050887;28;20766;-62
2022/07/18 01:39:48;;;;;;;7.90;3.43;;;15.10;99.90;;;-141.84;57.27;20191.88;5051020;28;20292;-62
2022/07/18 01:42:17;;;;;;;7.10;3.28;;;15.10;99.90;;;-141.84;57.62;20151.22;5050881;28;20248;-61
2022/07/18 01:44:45;;;;;;;6.77;3.30;;;15.00;99.90;;;-141.84;58.02;20167.47;5050616;28;20773;-62
2022/07/18 01:47:14;;;;;;;5.63;3.22;;;15.00;99.90;;;-141.84;58.04;20163.41;5050729;28;20225;-62
2022/07/18 01:49:42;;;;;;;5.55;3.50;;;15.00;99.90;;;-141.84;57.89;20210.16;5050715;28;20316;-61
2022/07/18 01:52:11;;;;;;;4.43;3.47;;;14.90;99.90;;;-141.84;57.80;20187.81;5050593;28;20212;-61
2022/07/18 01:54:40;;;;;;;5.82;3.13;;;15.00;99.90;;;-141.84;57.94;20175.63;5050913;28;20247;-60
2022/07/18 01:57:09;;;;;;;4.73;3.40;;;15.00;99.90;;;-141.84;58.13;20195.94;5050416;28;20225;-62
2022/07/18 01:59:37;;;;;;;6.47;3.60;;;15.00;99.90;;;-141.84;58.22;20167.47;5050354;28;20321;-62
2022/07/18 02:02:06;;;;;;;6.33;3.40;;;14.90;99.90;;;-141.84;58.56;20159.34;5050177;28;20227;-61
2022/07/18 02:07:21;;;;;;;3.83;2.88;;;14.90;99.90;;;-141.84;58.45;20155.28;5050422;28;20700;-63
2022/07/18 02:09:50;;;;;;;5.00;2.97;;;14.80;99.90;;;-141.84;58.75;20132.94;5050747;28;20287;-63
2022/07/18 02:12:18;;;;;;;4.33;2.77;;;14.80;99.90;;;-141.84;58.19;20143.09;5050371;28;20335;-61
2022/07/18 02:14:47;;;;;;;3.50;2.83;;;14.80;99.90;;;-141.84;57.86;20147.16;5050191;28;20707;-63
2022/07/18 02:17:15;;;;;;;7.00;2.60;;;14.80;99.90;;;-141.84;57.74;20163.41;5050096;28;20308;-62
2022/07/18 02:19:44;;;;;;;8.05;3.05;;;14.80;99.90;;;-141.84;57.64;20147.16;5050380;28;20224;-62
2022/07/18 02:22:12;;;;;;;4.30;2.80;;;14.80;99.90;;;-141.84;57.46;20175.63;5050467;28;20219;-62
2022/07/18 02:24:40;;;;;;;4.25;2.95;;;14.80;99.90;;;-141.84;57.17;20181.72;5050627;28;20315;-61
2022/07/18 02:27:11;;;;;;;4.97;2.70;;;14.80;99.90;;;-141.84;58.68;20118.69;5050342;28;20321;-62
2022/07/18 02:29:39;;;;;;;4.43;2.53;;;14.70;99.90;;;-141.84;57.79;20122.78;5050553;28;20221;-61
2022/07/18 02:32:07;;;;;;;4.10;2.63;;;14.70;99.90;;;-141.84;57.97;20112.59;5050252;28;20220;-64
2022/07/18 02:34:36;;;;;;;4.50;2.33;;;14.70;99.90;;;-141.84;57.79;20130.91;5050476;28;20279;-61
2022/07/18 02:37:05;;;;;;;5.07;2.77;;;14.60;99.90;;;-141.84;57.71;20151.22;5050265;28;20247;-62
2022/07/18 02:39:33;;;;;;;3.90;2.50;;;14.60;99.90;;;-141.84;58.00;20132.94;5050633;28;20240;-61
2022/07/18 02:42:01;;;;;;;3.90;2.45;;;14.60;99.90;;;-141.84;58.30;20122.78;5050153;28;20257;-61
2022/07/18 02:44:31;;;;;;;3.60;2.90;;;14.50;99.90;;;-141.84;58.09;20116.66;5050139;28;20313;-62
2022/07/18 02:46:59;;;;;;;3.20;2.33;;;14.50;99.90;;;-141.84;57.35;20171.56;5050161;28;20259;-62
2022/07/18 02:49:27;;;;;;;4.63;2.43;;;14.50;99.90;;;-141.84;56.79;20181.72;5050297;28;20280;-61
2022/07/18 02:51:58;;;;;;;3.30;2.37;;;14.60;99.90;;;-141.84;57.47;20122.78;5050667;28;20209;-61
2022/07/18 02:54:27;;;;;;;3.80;2.35;;;14.60;99.90;;;-141.84;56.90;20130.91;5049801;28;20307;-62
2022/07/18 02:56:56;;;;;;;4.73;2.40;;;14.60;99.90;;;-141.84;56.51;20147.16;5049886;28;20304;-63
2022/07/18 02:59:25;;;;;;;4.53;2.43;;;14.60;99.90;;;-141.84;56.99;20120.75;5050072;28;20249;-62
2022/07/18 03:01:56;;;;;;;3.23;2.33;;;14.50;99.90;;;-141.84;57.19;20139.03;5049328;28;20739;-60
2022/07/18 03:04:25;;;;;;;6.17;2.40;;;14.60;99.90;;;-141.84;57.66;20134.97;5050192;28;20316;-62
2022/07/18 03:06:53;;;;;;;5.33;2.80;;;14.50;99.90;;;-141.84;58.09;20108.53;5050221;28;20236;-62
2022/07/18 03:09:21;;;;;;;5.37;2.40;;;14.50;99.90;;;-141.84;58.13;20086.19;5049840;28;20264;-62
2022/07/18 03:11:50;;;;;;;5.03;2.47;;;14.50;99.90;;;-141.84;57.83;20114.63;5053467;28;20248;-61
2022/07/18 03:14:18;;;;;;;4.03;2.23;;;14.50;99.90;;;-141.84;57.89;20100.41;5053370;28;20290;-61
2022/07/18 03:16:46;;;;;;;6.95;2.42;;;14.50;99.90;;;-141.84;57.40;20147.16;5053193;28;20731;-62
2022/07/18 03:19:16;;;;;;;4.50;2.20;;;14.50;99.90;;;-141.84;57.50;20151.22;5053684;28;20240;-62
2022/07/18 03:21:45;;;;;;;7.57;2.30;;;14.50;99.90;;;-141.84;56.93;20137.00;5054101;28;20209;-63
2022/07/18 03:24:14;;;;;;;5.53;2.33;;;14.50;99.90;;;-141.84;57.47;20149.19;5053375;28;20233;-62
2022/07/18 03:26:43;;;;;;;6.60;2.53;;;14.50;99.90;;;-141.84;57.00;20143.09;5053121;28;20712;-62
2022/07/18 03:29:12;;;;;;;4.30;2.57;;;14.50;99.90;;;-141.84;56.43;20106.50;5053309;28;20656;-62
2022/07/18 03:31:40;;;;;;;5.90;2.20;;;14.50;99.90;;;-141.84;57.29;20128.88;5053217;28;20257;-62
2022/07/18 03:34:09;;;;;;;4.55;2.28;;;14.50;99.90;;;-141.84;57.31;20137.00;5053407;28;20280;-61
2022/07/18 03:36:39;;;;;;;6.53;2.37;;;14.50;99.90;;;-141.84;58.25;20108.53;5053476;28;20313;-61
2022/07/18 03:39:09;;;;;;;6.57;2.60;;;14.50;99.90;;;-141.84;57.83;20106.50;5053383;28;20225;-62
2022/07/18 03:41:38;;;;;;;8.30;3.10;;;14.50;99.90;;;-141.84;57.51;20124.81;5052829;28;20221;-61
2022/07/18 03:44:07;;;;;;;6.40;2.80;;;14.60;99.90;;;-141.84;57.58;20139.03;5052981;28;20944;-61
2022/07/18 03:46:35;;;;;;;4.57;2.80;;;14.60;99.90;;;-141.84;58.32;20098.38;5052925;28;20263;-62
2022/07/18 03:49:04;;;;;;;4.07;2.93;;;14.60;99.90;;;-141.84;59.32;20096.34;5053251;28;20201;-61
2022/07/18 03:51:32;;;;;;;5.03;3.10;;;14.60;99.90;;;-141.84;59.29;20134.97;5053518;28;20288;-62
2022/07/18 03:54:02;;;;;;;8.57;2.90;;;14.60;99.90;;;-141.84;58.66;20143.09;5052647;28;20686;-61
2022/07/18 03:56:30;;;;;;;5.43;2.90;;;14.60;99.90;;;-141.84;58.30;20147.16;5052568;28;20746;-61
2022/07/18 03:58:59;;;;;;;7.55;2.80;;;14.60;99.90;;;-141.84;58.88;20118.69;5052732;28;20229;-63
2022/07/18 04:01:27;;;;;;;7.80;3.22;;;14.70;99.90;;;-141.84;58.82;20141.06;5052390;28;20304;-61
2022/07/18 04:03:55;;;;;;;4.27;2.97;;;14.70;99.90;;;-141.84;58.77;20155.28;5053333;28;20206;-61
2022/07/18 04:06:24;;;;;;;5.07;3.00;;;14.70;99.90;;;-141.84;58.63;20159.34;5052317;28;20225;-63
2022/07/18 04:08:52;;;;;;;4.53;3.17;;;14.80;99.90;;;-141.84;59.03;20139.03;5052484;28;20256;-61
2022/07/18 04:11:23;;;;;;;6.77;3.40;;;14.80;99.90;;;-141.84;58.50;20161.38;5032470;28;20226;-62
2022/07/18 04:13:53;;;;;;;6.40;3.13;;;14.90;99.90;;;-141.84;58.55;20177.66;5042834;28;20236;-62
2022/07/18 04:16:21;;;;;;;5.90;3.03;;;14.90;99.90;;;-141.84;58.68;20157.31;5052084;28;20197;-62
2022/07/18 04:18:50;;;;;;;6.47;3.13;;;15.00;99.90;;;-141.84;58.84;20175.63;5052988;28;20219;-61
2022/07/18 04:21:18;;;;;;;4.90;3.20;;;15.00;99.90;;;-141.84;58.25;20210.16;5052090;28;20313;-62
2022/07/18 04:23:46;;;;;;;6.53;3.72;;;15.10;99.90;;;-141.84;58.85;20206.09;5052268;28;20275;-62
2022/07/18 04:26:15;;;;;;;5.73;3.10;;;15.10;99.90;;;-141.84;58.25;20195.94;5052138;28;20335;-61
2022/07/18 04:28:45;;;;;;;7.22;3.60;;;15.20;99.90;;;-141.84;58.28;20228.47;5052285;28;20282;-62
2022/07/18 04:31:13;;;;;;;6.55;3.25;;;15.30;99.90;;;-141.84;58.02;20191.88;5052112;28;20316;-61
2022/07/18 04:33:41;;;;;;;6.00;3.23;;;15.30;99.90;;;-141.84;58.21;20250.81;5053136;28;20201;-62
2022/07/18 04:36:10;;;;;;;5.00;3.38;;;15.40;99.90;;;-141.84;58.23;20187.81;5052036;28;20221;-61
2022/07/18 04:38:38;;;;;;;6.50;3.45;;;15.40;99.90;;;-141.84;58.37;20246.75;5051810;28;20723;-61
2022/07/18 04:41:07;;;;;;;5.70;3.25;;;15.50;99.90;;;-141.84;57.54;20246.75;5051944;28;20337;-62
2022/07/18 04:43:35;;;;;;;5.83;3.57;;;15.50;99.90;;;-141.84;57.19;20210.16;5051749;28;20303;-61
2022/07/18 04:46:05;;;;;;;3.80;2.95;;;15.60;99.90;;;-141.84;56.79;20260.97;5051768;28;20618;-61
2022/07/18 04:48:34;;;;;;;9.10;3.25;;;15.70;99.90;;;-141.84;56.21;20330.09;5052621;28;20229;-62
2022/07/18 04:51:02;;;;;;;4.72;3.35;;;15.80;99.90;;;-141.84;56.63;20326.03;5051778;28;20712;-61
2022/07/18 04:53:30;;;;;;;5.68;3.38;;;15.90;99.90;;;-141.84;56.41;20334.16;5051480;28;20604;-61
2022/07/18 04:55:58;;;;;;;5.93;3.40;;;16.00;99.90;;;-141.84;56.09;20356.50;5051410;28;20754;-63
2022/07/18 04:58:26;;;;;;;5.97;3.45;;;16.20;99.90;;;-141.84;56.16;20399.19;5051648;28;20259;-62
2022/07/18 05:00:55;;;;;;;5.45;3.30;;;16.40;99.90;;;-141.84;52.64;20651.25;5052265;28;20197;-62
2022/07/18 05:03:25;;;;;;;7.18;3.15;;;17.30;99.90;;;-141.84;45.59;21100.53;5051210;28;20727;-62
2022/07/18 05:05:53;;;;;;;13.60;4.18;;;18.90;99.90;;;-141.84;41.50;21397.38;5051292;28;20722;-62
2022/07/18 05:08:21;;;;;;;9.25;3.10;;;20.30;99.90;;;-141.84;38.01;21755.22;5051391;28;20221;-62
2022/07/18 05:10:50;;;;;;;7.60;2.90;;;21.70;99.90;;;-141.84;35.81;21999.25;5051136;28;20308;-63
2022/07/18 05:13:18;;;;;;;6.28;3.30;;;22.80;99.90;;;-141.84;34.11;22247.34;5051188;28;20205;-62
2022/07/18 05:15:46;;;;;;;6.35;3.05;;;23.30;99.90;;;-141.84;33.06;22359.19;5051845;28;20676;-62
2022/07/18 05:18:15;;;;;;;9.77;3.10;;;24.00;99.90;;;-141.84;32.21;22550.34;5051055;28;20280;-61
2022/07/18 05:20:44;;;;;;;5.95;3.30;;;23.80;99.90;;;-141.84;32.09;22599.16;5051179;28;20258;-62
2022/07/18 05:23:16;;;;;;;5.72;3.10;;;24.00;99.90;;;-141.84;31.88;22584.94;5051077;28;20260;-61
2022/07/18 05:25:44;;;;;;;6.32;2.88;;;24.30;99.90;;;-141.84;31.28;22696.78;5031152;28;20676;-62
2022/07/18 05:28:12;;;;;;;7.50;2.70;;;24.80;99.90;;;-141.84;31.35;22627.63;5031447;28;20300;-63
2022/07/18 05:30:40;;;;;;;5.72;2.58;;;24.50;99.90;;;-141.84;30.61;22688.66;5031892;28;20602;-62
2022/07/18 05:33:09;;;;;;;6.25;2.85;;;24.30;99.90;;;-141.84;31.19;22525.94;5030219;28;20240;-63
2022/07/18 05:35:37;;;;;;;5.32;2.90;;;24.00;99.90;;;-141.84;31.28;22420.19;5030914;28;20222;-62
2022/07/18 05:38:07;;;;;;;6.32;2.80;;;23.50;99.90;;;-141.84;32.29;22222.94;5031039;28;20795;-61
2022/07/18 05:40:35;;;;;;;5.72;2.85;;;23.10;99.90;;;-141.84;34.39;21940.25;5030986;28;20230;-61
2022/07/18 05:43:04;;;;;;;6.63;2.80;;;22.70;99.90;;;-141.84;36.11;21757.25;5031072;28;20206;-62
2022/07/18 05:45:32;;;;;;;7.25;3.00;;;22.20;99.90;;;-141.84;37.34;21539.69;5031635;28;20229;-62
2022/07/18 05:48:01;;;;;;;5.78;2.47;;;21.70;99.90;;;-141.84;38.15;21446.16;5030474;28;20234;-62
2022/07/18 05:50:29;;;;;;;5.80;2.55;;;21.50;99.90;;;-141.84;38.73;21348.56;5030720;28;20233;-61
2022/07/18 05:52:57;;;;;;;5.72;2.88;;;21.40;99.90;;;-141.84;40.04;21212.34;5030552;28;20226;-62
2022/07/18 05:55:27;;;;;;;5.85;2.40;;;20.90;99.90;;;-141.84;40.49;21175.75;5048086;28;20230;-61
2022/07/18 05:57:56;;;;;;;7.78;2.50;;;20.70;99.90;;;-141.84;41.08;21198.13;5050971;28;20185;-62
2022/07/18 06:00:24;;;;;;;6.85;2.63;;;20.70;99.90;;;-141.84;42.14;21131.03;5050251;28;20438;-61
2022/07/18 06:02:53;;;;;;;8.27;2.80;;;20.40;99.90;;;-141.84;42.63;21090.38;5049667;28;20231;-61
2022/07/18 06:05:21;;;;;;;5.03;2.30;;;20.20;99.90;;;-141.84;42.99;21092.41;5050536;28;20225;-61
2022/07/18 06:07:53;;;;;;;7.65;2.70;;;20.10;99.90;;;-141.84;43.35;21092.41;5050327;28;20296;-62
2022/07/18 06:10:24;;;;;;;5.60;2.80;;;20.10;99.90;;;-141.84;43.78;21033.44;5050389;28;20287;-61
2022/07/18 06:12:54;;;;;;;7.85;2.65;;;20.30;99.90;;;-141.84;43.12;21090.38;5050645;28;20282;-61
2022/07/18 06:15:23;;;;;;;7.55;3.03;;;20.50;99.90;;;-141.84;42.48;21159.50;5050360;28;20667;-62
2022/07/18 06:17:52;;;;;;;6.72;2.50;;;20.60;99.90;;;-141.84;43.02;21153.41;5050232;28;20225;-60
2022/07/18 06:20:21;;;;;;;5.47;2.55;;;20.70;99.90;;;-141.84;42.59;21179.81;5050525;28;20229;-62
2022/07/18 06:22:49;;;;;;;5.22;2.55;;;20.70;99.90;;;-141.84;42.43;21167.63;5050531;28;20227;-61
2022/07/18 06:25:17;;;;;;;8.77;2.75;;;20.80;99.90;;;-141.84;42.23;21175.75;5050201;28;20205;-60
2022/07/18 06:27:45;;;;;;;5.82;2.55;;;20.80;99.90;;;-141.84;42.04;21196.09;5050807;28;20229;-59
2022/07/18 06:30:15;;;;;;;6.72;2.70;;;21.00;99.90;;;-141.84;42.79;21177.78;5050193;28;20311;-60
2022/07/18 06:32:44;;;;;;;6.93;2.47;;;21.00;99.90;;;-141.84;42.90;21194.06;5050375;28;20248;-58
2022/07/18 06:35:12;;;;;;;5.72;2.65;;;21.20;99.90;;;-141.84;43.05;21253.00;5049985;28;20599;-60
2022/07/18 06:37:40;;;;;;;8.90;2.78;;;21.20;99.90;;;-141.84;42.39;21250.97;5050011;28;20729;-60
2022/07/18 06:40:09;;;;;;;5.85;2.65;;;21.20;99.90;;;-141.84;42.53;21255.03;5049685;28;20313;-60
2022/07/18 06:42:37;;;;;;;6.75;2.75;;;21.20;99.90;;;-141.84;42.44;21224.56;5050666;28;20819;-60
2022/07/18 06:45:09;;;;;;;4.57;2.20;;;21.30;99.90;;;-141.84;42.94;21275.38;5051401;28;20308;-59
2022/07/18 06:47:42;;;;;;;4.95;2.13;;;21.40;99.90;;;-141.84;43.09;21259.13;5053937;28;20221;-59
2022/07/18 06:50:12;;;;;;;7.30;2.22;;;21.60;99.90;;;-141.84;42.78;21285.53;5053820;28;20662;-60
2022/07/18 06:52:41;;;;;;;5.93;2.20;;;21.70;99.90;;;-141.84;42.23;21287.56;5052870;28;20742;-60
2022/07/18 06:55:11;;;;;;;4.97;2.10;;;21.80;99.90;;;-141.84;41.81;21299.78;5053514;28;20240;-60
2022/07/18 06:57:41;;;;;;;6.00;2.60;;;21.90;99.90;;;-141.84;41.30;21360.78;5054162;28;20196;-60
2022/07/18 07:00:13;;;;;;;5.38;2.08;;;22.00;99.90;;;-141.84;41.17;21346.53;5054137;28;20249;-60
2022/07/18 07:02:45;;;;;;;4.45;2.45;;;22.00;99.90;;;-141.84;41.80;21366.88;5044905;28;20707;-60
2022/07/18 07:05:14;;;;;;;4.25;2.00;;;22.20;99.90;;;-141.84;42.08;21387.19;5054053;28;20328;-60
2022/07/18 07:07:43;;;;;;;6.53;2.13;;;22.30;99.90;;;-141.84;41.14;21411.59;5053785;28;20225;-56
2022/07/18 07:10:16;;;;;;;5.82;2.13;;;22.40;99.90;;;-141.84;40.71;21393.31;5054202;28;20269;-59
2022/07/18 07:12:47;;;;;;;5.07;2.40;;;22.30;99.90;;;-141.84;40.84;21395.34;5054087;28;20236;-56
2022/07/18 07:15:19;;;;;;;8.57;2.40;;;22.40;99.90;;;-141.84;40.16;21438.03;5053354;28;20783;-55
2022/07/18 07:17:49;;;;;;;4.18;2.33;;;22.40;99.90;;;-141.84;40.26;21431.94;5053290;28;20305;-56
2022/07/18 07:20:20;;;;;;;7.25;2.20;;;22.50;99.90;;;-141.84;40.07;21480.72;5053413;28;20267;-55
2022/07/18 07:22:51;;;;;;;3.03;2.20;;;22.50;99.90;;;-141.84;38.94;21472.59;5053332;28;20225;-59
2022/07/18 07:25:23;;;;;;;6.18;2.40;;;22.50;99.90;;;-141.84;38.65;21509.19;5053283;28;20292;-59
2022/07/18 07:27:51;;;;;;;6.10;1.70;;;22.50;99.90;;;-141.84;37.49;21456.34;5054179;28;20205;-56
2022/07/18 07:30:20;;;;;;;5.22;3.05;;;22.60;99.90;;;-141.84;37.40;21501.06;5053282;28;20264;-57
2022/07/18 07:32:50;;;;;;;4.45;1.85;;;22.50;99.90;;;-141.84;35.95;21519.34;5053159;28;20221;-56
2022/07/18 07:35:21;;;;;;;5.35;1.95;;;22.50;99.90;;;-141.84;36.66;21482.75;5053075;28;20236;-57
2022/07/18 07:37:53;;;;;;;3.25;1.60;;;22.40;99.90;;;-141.84;37.24;21460.41;5053428;28;20747;-56
2022/07/18 07:40:24;;;;;;;6.15;1.50;;;22.40;99.90;;;-141.84;36.93;21484.78;5052877;28;20284;-57
2022/07/18 07:42:52;;;;;;;4.05;1.83;;;22.50;99.90;;;-141.84;35.77;21572.22;5053747;28;20623;-56
2022/07/18 07:45:20;;;;;;;6.63;1.90;;;22.70;99.90;;;-141.84;35.12;21732.84;5052838;28;20248;-58
2022/07/18 07:47:50;;;;;;;5.30;1.95;;;23.00;99.90;;;-141.84;34.49;21799.97;5053006;28;20307;-58
2022/07/18 07:50:19;;;;;;;2.15;1.63;;;23.40;99.90;;;-141.84;34.50;21745.06;5052908;28;20619;-57
2022/07/18 07:52:47;;;;;;;3.60;1.58;;;23.50;99.90;;;-141.84;34.67;21738.97;5053097;28;20282;-57
2022/07/18 07:55:15;;;;;;;3.90;1.50;;;23.60;99.90;;;-141.84;34.39;21700.31;5051857;28;20288;-55
2022/07/18 07:57:43;;;;;;;6.55;1.50;;;23.50;99.90;;;-141.84;33.35;21692.19;5053414;28;20280;-55
2022/07/18 08:00:12;;;;;;;2.95;1.77;;;23.40;99.90;;;-141.84;33.38;21651.53;5052792;28;20313;-57
2022/07/18 08:02:54;;;;;;;5.38;1.63;;;23.30;99.90;;;-141.84;33.91;21669.81;5052333;28;20308;-57
2022/07/18 08:05:29;;;;;;;3.15;1.58;;;23.20;99.90;;;-141.84;34.15;21714.56;5052668;28;20228;-55
2022/07/18 08:07:58;;;;;;;3.90;1.80;;;23.20;99.90;;;-141.84;34.63;21667.78;5052667;28;20649;-57
2022/07/18 08:10:27;;;;;;;3.78;1.83;;;23.10;99.90;;;-141.84;34.08;21610.84;5052486;28;20268;-57
2022/07/18 08:12:55;;;;;;;4.50;1.70;;;23.10;99.90;;;-141.84;34.29;21673.88;5053164;28;20236;-56
2022/07/18 08:15:24;;;;;;;3.00;1.50;;;23.10;99.90;;;-141.84;34.70;21680.00;5052447;28;20233;-57
2022/07/18 08:17:54;;;;;;;4.45;1.55;;;23.10;99.90;;;-141.84;34.23;21675.94;5052309;28;20240;-57
2022/07/18 08:20:23;;;;;;;3.47;1.50;;;23.10;99.90;;;-141.84;34.27;21667.78;5052611;28;20231;-55
2022/07/18 08:23:00;;;;;;;4.18;1.83;;;23.10;99.90;;;-141.84;34.53;21641.34;5052479;28;20233;-55
2022/07/18 08:25:31;;;;;;;4.47;1.80;;;23.20;99.90;;;-141.84;34.53;21680.00;5052033;28;20221;-56
2022/07/18 08:28:00;;;;;;;4.22;1.65;;;23.20;99.90;;;-141.84;34.10;21706.44;5052993;28;20245;-58
2022/07/18 08:30:29;;;;;;;2.60;1.20;;;23.30;99.90;;;-141.84;33.06;21747.09;5052583;28;20229;-59
2022/07/18 08:33:00;;;;;;;3.78;1.80;;;23.40;99.90;;;-141.84;32.80;21773.53;5052102;28;20825;-58
2022/07/18 08:35:29;;;;;;;4.32;1.42;;;23.40;99.90;;;-141.84;32.97;21765.38;5052117;28;20252;-57
2022/07/18 08:37:57;;;;;;;3.28;1.60;;;23.50;99.90;;;-141.84;32.66;21783.69;5052342;28;20249;-57
2022/07/18 08:40:26;;;;;;;4.45;1.42;;;23.50;99.90;;;-141.84;32.05;21799.97;5052065;28;20227;-58
2022/07/18 08:42:57;;;;;;;2.75;1.20;;;23.50;99.90;;;-141.84;31.20;21867.06;5052298;28;20295;-56
2022/07/18 08:45:46;;;;;;;6.15;1.63;;;23.60;99.90;;;-141.84;31.75;21832.50;5051845;28;20229;-58
2022/07/18 08:48:17;;;;;;;4.00;1.35;;;23.70;99.90;;;-141.84;31.61;21869.09;5051605;28;20232;-56
2022/07/18 08:50:46;;;;;;;5.88;1.50;;;23.70;99.90;;;-141.84;31.99;21883.31;5051887;28;20377;-55
2022/07/18 08:53:17;;;;;;;4.35;1.70;;;23.80;99.90;;;-141.84;31.76;21905.69;5052048;28;20309;-57
2022/07/18 08:55:46;;;;;;;2.75;1.67;;;23.90;99.90;;;-141.84;31.62;21932.13;5047167;28;20304;-56
2022/07/18 08:58:17;;;;;;;4.07;1.60;;;23.90;99.90;;;-141.84;31.69;21913.84;5052103;28;20288;-56
2022/07/18 09:01:06;;;;;;;4.78;1.45;;;24.00;99.90;;;-141.84;31.58;21960.59;5051572;28;20204;-57
2022/07/18 09:03:35;;;;;;;2.85;1.50;;;24.10;99.90;;;-141.84;31.49;21944.34;5052491;28;20194;-56
2022/07/18 09:06:07;;;;;;;3.50;1.30;;;24.10;99.90;;;-141.84;31.71;21911.78;5051422;28;20383;-57
2022/07/18 09:08:38;;;;;;;3.83;1.65;;;24.20;99.90;;;-141.84;31.57;21917.91;5050441;28;20317;-58
2022/07/18 09:11:12;;;;;;;2.97;1.40;;;24.20;99.90;;;-141.84;31.50;21972.81;5051403;28;20316;-57
2022/07/18 09:14:00;;;;;;;4.18;1.27;;;24.30;99.90;;;-141.84;31.01;21948.41;5051268;28;20221;-56
2022/07/18 09:16:28;;;;;;;3.45;1.42;;;24.40;99.90;;;-141.84;31.32;21948.41;5051489;28;20216;-57
2022/07/18 09:19:06;;;;;;;2.83;1.70;;;24.40;99.90;;;-141.84;31.66;22021.59;5052113;28;20201;-59
2022/07/18 09:21:37;;;;;;;4.38;1.55;;;24.50;99.90;;;-141.84;31.13;21999.25;5049903;28;20232;-58
2022/07/18 09:24:06;;;;;;;3.13;1.30;;;24.60;99.90;;;-141.84;30.48;22078.53;5051310;28;20308;-55
2022/07/18 09:26:40;;;;;;;4.13;1.80;;;24.60;99.60;;;-141.84;30.15;22102.94;5051348;28;20268;-56
2022/07/18 09:29:09;;;;;;;2.78;1.63;;;24.80;99.20;;;-141.84;30.31;22127.34;5051311;28;20237;-57
2022/07/18 09:31:56;;;;;;;3.15;1.10;;;24.80;98.80;;;-141.84;30.23;22100.91;5051304;28;20333;-57
2022/07/18 09:34:37;;;;;;;3.58;1.48;;;24.90;98.80;;;-141.84;30.07;22131.41;5051256;28;20233;-58
2022/07/18 09:37:12;;;;;;;2.88;1.65;;;24.90;98.70;;;-141.84;30.03;22151.75;5050940;28;20225;-55
2022/07/18 09:39:41;;;;;;;6.57;1.50;;;25.00;98.70;;;-141.84;29.75;22123.28;5051575;28;20542;-55
2022/07/18 09:42:16;;;;;;;4.25;1.83;;;25.00;97.90;;;-141.84;29.14;22184.28;5050792;28;20236;-58
2022/07/18 09:44:57;;;;;;;2.65;1.63;;;25.00;97.50;;;-141.84;28.81;22206.66;5050924;28;20260;-58
2022/07/18 09:47:26;;;;;;;5.03;2.00;;;25.10;96.80;;;-141.84;28.65;22231.06;5050535;28;20217;-57
2022/07/18 09:49:56;;;;;;;4.20;2.00;;;25.10;96.70;;;-141.84;29.36;22200.56;5050721;28;20225;-58
2022/07/18 09:52:24;;;;;;;2.97;2.05;;;25.10;97.70;;;-141.84;28.89;22224.97;5050732;28;20221;-56
2022/07/18 09:55:05;;;;;;;3.60;1.88;;;25.20;96.90;;;-141.84;28.43;22290.03;5051253;28;20300;-59
2022/07/18 09:57:33;;;;;;;3.65;2.30;;;25.30;96.10;;;-141.84;27.54;22363.25;5051039;28;20287;-57
2022/07/18 10:00:02;;;;;;;2.70;2.08;;;25.60;95.10;;;-141.84;27.39;22377.47;5050538;28;20312;-57
2022/07/18 10:02:31;;;;;;;3.08;2.35;;;25.60;94.80;;;-141.84;27.81;22383.59;5050107;28;20213;-56
2022/07/18 10:05:02;;;;;;;4.72;2.15;;;25.70;95.10;;;-141.84;27.99;22369.34;5050600;28;20565;-57
2022/07/18 10:07:37;;;;;;;3.50;2.00;;;25.80;95.40;;;-141.84;27.67;22471.03;5050701;28;20275;-57
2022/07/18 10:10:06;;;;;;;5.40;2.28;;;26.00;95.30;;;-141.84;28.19;22438.50;5050358;28;20221;-56
2022/07/18 10:12:35;;;;;;;3.72;2.05;;;26.00;95.60;;;-141.84;28.15;22530.00;5050924;28;20280;-56
2022/07/18 10:15:03;;;;;;;4.63;2.10;;;26.20;95.90;;;-141.84;28.00;22477.13;5050436;28;20225;-57
2022/07/18 10:17:32;;;;;;;3.55;2.22;;;26.20;95.20;;;-141.84;28.08;22489.34;5050118;28;20225;-57
2022/07/18 10:20:11;;;;;;;4.68;2.22;;;26.10;95.60;;;-141.84;28.34;22495.44;5050057;28;20239;-58
2022/07/18 10:22:42;;;;;;;4.78;2.03;;;26.30;95.80;;;-141.84;28.16;22556.47;5050547;28;20249;-57
2022/07/18 10:25:12;;;;;;;4.80;2.30;;;26.40;95.70;;;-141.84;27.60;22566.63;5050090;28;20201;-57
2022/07/18 10:27:53;;;;;;;3.33;2.03;;;26.50;95.00;;;-141.84;27.75;22584.94;5051118;28;20259;-58